Airfield :
LOGIN :

Register | Disclaimer

   EN    FR    IT 

 










Legend :    VFR   Marginal VFR   IFR   Intensive IFR   Very Intensive IFR
Visi :
Ceiling :
>= 8 km
>= 3000ft
5 to 8 km
1000 to 3000 ft
1500m to 5 km
500 to 1000 ft
800 to 1500m
200 to 500 ft
< 800m
< 200 ft
Symbols :   Thunderstorms  Fog  Heavy snow  Heavy precipitations  Wind > 20 kt
SIGMETs :     Misc.  Thunderstorms  Icing  Turbulence  Mountain Waves  Volcanic Ashes






- Airport Elevation : 328 ft
- IATA code : PGX


LFBX - Périgueux Bassillac

CURRENT METAR :
  • 282130Z AUTO 00000KT CAVOK 04/02 Q1023

EXPIRED METARs :
  • 282100Z AUTO 11003KT CAVOK 04/02 Q1023
  • 282030Z AUTO 00000KT CAVOK 05/03 Q1023
  • 282000Z AUTO 00000KT CAVOK 05/02 Q1023
  • 281930Z AUTO 00000KT CAVOK 05/02 Q1023
  • 281900Z AUTO 00000KT CAVOK 06/02 Q1023
  • 281830Z AUTO VRB02KT CAVOK 07/02 Q1023
  • 281800Z AUTO VRB02KT CAVOK 09/02 Q1023
  • 281730Z AUTO VRB02KT CAVOK 10/03 Q1023
  • 281700Z AUTO 30004KT CAVOK 10/01 Q1023

TAF N/A



MET'MAP, your aeronautical weather chart ! - Copyright ORBIFLY December 2007 - Disclaimer

ORBIFLY MET'MAP TEAM :

Programming & Development : Alexandra Zaïnal
Original concept : Baudouin d'Aumeries
Technical & hardware support : Manuel Goepfert
Assistance : Marc-Olivier Méhu




SOURCES & CREDITS :

   NOAA